createdAt,value
2019-06-08T00:02:14.594Z,97685.47
2019-06-08T00:04:42.940Z,97691.84
2019-06-08T00:07:11.034Z,97687.48
2019-06-08T00:09:39.433Z,97691.56
2019-06-08T00:12:07.455Z,97680.05
2019-06-08T00:14:35.514Z,97688.44
2019-06-08T00:17:03.526Z,97696.38
2019-06-08T00:19:31.573Z,97693.66
2019-06-08T00:21:59.608Z,97691.37
2019-06-08T00:24:27.635Z,97696.17
2019-06-08T00:26:55.657Z,97696.38
2019-06-08T00:29:24.614Z,97697.97
2019-06-08T00:31:53.074Z,97698.38
2019-06-08T00:34:20.996Z,97703.41
2019-06-08T00:36:49.095Z,97710.98
2019-06-08T00:39:17.066Z,97710.13
2019-06-08T00:41:45.210Z,97706.70
2019-06-08T00:44:13.161Z,97713.66
2019-06-08T00:46:41.752Z,97710.22
2019-06-08T00:49:09.810Z,97711.34
2019-06-08T00:51:37.699Z,97720.31
2019-06-08T00:54:05.596Z,97728.27
2019-06-08T00:56:33.486Z,97729.41
2019-06-08T00:59:01.486Z,97721.76
2019-06-08T01:01:30.905Z,97723.48
2019-06-08T01:03:59.088Z,97725.36
2019-06-08T01:06:27.556Z,97720.13
2019-06-08T01:08:56.705Z,97723.64
2019-06-08T01:11:24.814Z,97724.92
2019-06-08T01:13:52.836Z,97723.56
2019-06-08T01:18:54.270Z,97733.25
2019-06-08T01:21:23.291Z,97736.33
2019-06-08T01:23:52.330Z,97741.33
2019-06-08T01:26:20.277Z,97741.33
2019-06-08T01:28:48.402Z,97743.84
2019-06-08T01:33:49.478Z,97737.97
2019-06-08T01:36:17.465Z,97737.61
2019-06-08T01:38:45.433Z,97734.48
2019-06-08T01:41:13.402Z,97729.81
2019-06-08T01:43:41.382Z,97730.97
2019-06-08T01:46:09.260Z,97732.33
2019-06-08T01:48:37.285Z,97728.24
2019-06-08T01:51:05.365Z,97730.97
2019-06-08T01:53:33.325Z,97731.69
2019-06-08T01:56:01.400Z,97737.48
2019-06-08T01:58:29.532Z,97733.77
2019-06-08T02:00:57.580Z,97733.77
2019-06-08T02:03:26.318Z,97725.60
2019-06-08T02:05:55.406Z,97737.41
2019-06-08T02:08:24.388Z,97738.92
2019-06-08T02:10:53.080Z,97749.00
2019-06-08T02:13:21.134Z,97758.05
2019-06-08T02:16:08.187Z,97766.05
2019-06-08T02:18:46.832Z,97765.41
2019-06-08T02:21:05.882Z,97777.09
2019-06-08T02:23:35.098Z,97775.22
2019-06-08T02:26:03.648Z,97789.47
2019-06-08T02:28:31.611Z,97794.34
2019-06-08T02:30:59.658Z,97789.47
2019-06-08T02:36:15.664Z,97804.23
2019-06-08T02:38:43.694Z,97811.23
2019-06-08T02:41:11.937Z,97816.48
2019-06-08T02:43:40.384Z,97814.23
2019-06-08T02:46:09.827Z,97815.83
2019-06-08T02:49:04.077Z,97816.75
2019-06-08T02:51:26.431Z,97808.44
2019-06-08T02:53:54.474Z,97818.67
2019-06-08T02:56:22.450Z,97817.24
2019-06-08T02:58:51.078Z,97816.59
2019-06-08T03:01:19.239Z,97816.66
2019-06-08T03:03:47.292Z,97824.47
2019-06-08T03:06:15.306Z,97821.98
2019-06-08T03:08:44.068Z,97824.11
2019-06-08T03:11:12.991Z,97825.35
2019-06-08T03:13:42.573Z,97790.67
2019-06-08T03:16:10.830Z,97831.64
2019-06-08T03:18:40.247Z,97840.88
2019-06-08T03:21:08.504Z,97838.45
2019-06-08T03:26:23.596Z,97845.41
2019-06-08T03:28:51.516Z,97844.25
2019-06-08T03:31:19.538Z,97844.52
2019-06-08T03:33:54.975Z,97839.16
2019-06-08T03:36:17.161Z,97844.52
2019-06-08T03:38:45.356Z,97843.95
2019-06-08T03:41:13.522Z,97849.20
2019-06-08T03:43:42.418Z,97858.21
2019-06-08T03:46:11.104Z,97868.00
2019-06-08T03:48:40.053Z,97876.61
2019-06-08T03:51:08.921Z,97881.20
2019-06-08T03:53:37.944Z,97889.06
2019-06-08T03:56:06.372Z,97894.09
2019-06-08T03:58:35.002Z,97892.94
2019-06-08T04:01:04.121Z,97889.66
2019-06-08T04:03:32.126Z,97882.26
2019-06-08T04:06:00.091Z,97886.99
2019-06-08T04:08:27.987Z,97890.84
2019-06-08T04:10:55.905Z,97893.86
2019-06-08T04:13:23.811Z,97898.73
2019-06-08T04:15:51.624Z,97908.25
2019-06-08T04:18:19.792Z,97910.41
2019-06-08T04:20:48.890Z,97918.58
2019-06-08T04:23:17.342Z,97925.03
2019-06-08T04:25:47.424Z,97923.78
2019-06-08T04:28:14.969Z,97919.94
2019-06-08T04:30:45.140Z,97916.86
2019-06-08T04:33:12.844Z,97926.15
2019-06-08T04:38:14.524Z,97925.85
2019-06-08T04:40:43.521Z,97925.94
2019-06-08T04:43:12.167Z,97922.52
2019-06-08T04:45:41.138Z,97922.16
2019-06-08T04:48:10.043Z,97938.39
2019-06-08T04:50:38.656Z,97941.27
2019-06-08T04:53:07.835Z,97947.27
2019-06-08T04:55:35.701Z,97951.79
2019-06-08T04:58:03.669Z,97961.81
2019-06-08T05:00:31.659Z,97953.71
2019-06-08T05:02:59.903Z,97968.12
2019-06-08T05:05:27.993Z,97974.21
2019-06-08T05:07:55.853Z,97979.56
2019-06-08T05:10:23.916Z,97978.20
2019-06-08T05:12:51.902Z,97985.59
2019-06-08T05:15:19.856Z,97992.96
2019-06-08T05:17:49.533Z,97994.53
2019-06-08T05:20:17.527Z,98003.94
2019-06-08T05:22:45.641Z,98007.57
2019-06-08T05:25:13.610Z,98014.94
2019-06-08T05:27:41.483Z,98023.59
2019-06-08T05:30:09.607Z,98026.97
2019-06-08T05:32:37.623Z,98034.83
2019-06-08T05:35:24.498Z,98037.64
2019-06-08T05:40:39.538Z,98002.33
2019-06-08T05:43:07.452Z,98043.64
2019-06-08T05:45:35.392Z,98045.36
2019-06-08T05:48:03.441Z,98043.64
2019-06-08T05:50:31.456Z,98047.58
2019-06-08T05:52:59.615Z,98052.52
2019-06-08T05:55:27.612Z,98059.41
2019-06-08T05:57:55.619Z,98064.50
2019-06-08T06:00:23.690Z,98064.36
2019-06-08T06:02:51.663Z,98070.72
2019-06-08T06:05:19.638Z,98069.94
2019-06-08T06:07:48.907Z,98075.59
2019-06-08T06:10:17.270Z,98074.59
2019-06-08T06:12:46.858Z,98082.75
2019-06-08T06:15:15.164Z,98085.26
2019-06-08T06:17:43.988Z,98090.04
2019-06-08T06:20:12.701Z,98091.16
2019-06-08T06:22:42.025Z,98091.61
2019-06-08T06:25:10.730Z,98094.78
2019-06-08T06:27:38.754Z,98097.52
2019-06-08T06:32:39.780Z,98108.64
2019-06-08T06:35:07.613Z,98114.53
2019-06-08T06:37:35.617Z,98112.38
2019-06-08T06:40:03.548Z,98123.61
2019-06-08T06:42:52.120Z,98118.62
2019-06-08T06:45:20.309Z,98115.80
2019-06-08T06:47:48.556Z,98129.36
2019-06-08T06:50:16.810Z,98128.69
2019-06-08T06:53:03.806Z,98136.37
2019-06-08T06:55:31.877Z,98132.98
2019-06-08T06:58:00.119Z,98135.28
2019-06-08T07:00:47.539Z,98138.22
2019-06-08T07:03:15.478Z,98138.78
2019-06-08T07:05:43.717Z,98140.98
2019-06-08T07:08:12.890Z,98143.48
2019-06-08T07:10:40.818Z,98144.36
2019-06-08T07:13:08.828Z,98149.37
2019-06-08T07:15:41.690Z,98158.63
2019-06-08T07:18:25.276Z,98156.60
2019-06-08T07:20:54.325Z,98158.06
2019-06-08T07:23:22.704Z,98168.50
2019-06-08T07:25:50.528Z,98166.26
2019-06-08T07:28:18.713Z,98171.08
2019-06-08T07:30:47.709Z,98178.23
2019-06-08T07:33:16.489Z,98171.70
2019-06-08T07:35:44.476Z,98179.37
2019-06-08T07:38:12.477Z,98179.52
2019-06-08T07:40:40.471Z,98181.88
2019-06-08T07:43:08.374Z,98187.81
2019-06-08T07:45:36.369Z,98179.65
2019-06-08T07:48:04.404Z,98184.81
2019-06-08T07:50:32.190Z,98180.66
2019-06-08T07:53:00.074Z,98183.94
2019-06-08T07:55:27.972Z,98185.52
2019-06-08T07:57:56.345Z,98185.97
2019-06-08T08:00:24.252Z,98189.77
2019-06-08T08:02:52.272Z,98182.31
2019-06-08T08:05:20.266Z,98182.55
2019-06-08T08:07:48.401Z,98188.55
2019-06-08T08:10:16.436Z,98181.19
2019-06-08T08:12:44.548Z,98186.18
2019-06-08T08:15:12.543Z,98189.84
2019-06-08T08:17:40.455Z,98193.36
2019-06-08T08:20:08.385Z,98190.28
2019-06-08T08:22:38.240Z,98152.03
2019-06-08T08:25:24.970Z,98189.97
2019-06-08T08:27:53.485Z,98188.39
2019-06-08T08:33:09.364Z,98185.09
2019-06-08T08:35:38.139Z,98193.01
2019-06-08T08:38:07.594Z,98187.70
2019-06-08T08:40:38.612Z,98189.94
2019-06-08T08:43:06.190Z,98185.17
2019-06-08T08:45:34.208Z,98187.36
2019-06-08T08:48:21.116Z,98153.33
2019-06-08T08:50:31.952Z,98198.42
2019-06-08T08:55:48.032Z,98190.74
2019-06-08T08:58:18.597Z,98192.31
2019-06-08T09:00:48.510Z,98193.19
2019-06-08T09:03:26.019Z,98189.77
2019-06-08T09:05:48.153Z,98199.22
2019-06-08T09:08:15.369Z,98193.91
2019-06-08T09:10:43.361Z,98194.13
2019-06-08T09:13:12.161Z,98190.92
2019-06-08T09:15:41.296Z,98190.82
2019-06-08T09:18:09.328Z,98191.20
2019-06-08T09:20:38.052Z,98198.88
2019-06-08T09:25:59.082Z,98197.73
2019-06-08T09:28:23.575Z,98203.52
2019-06-08T09:30:52.078Z,98207.52
2019-06-08T09:33:21.045Z,98201.14
2019-06-08T09:36:08.433Z,98205.78
2019-06-08T09:38:38.545Z,98200.66
2019-06-08T09:41:08.808Z,98207.94
2019-06-08T09:43:38.587Z,98208.61
2019-06-08T09:46:08.848Z,98214.75
2019-06-08T09:48:38.038Z,98209.86
2019-06-08T09:51:08.569Z,98220.85
2019-06-08T09:53:40.471Z,98222.13
2019-06-08T09:56:06.650Z,98217.33
2019-06-08T09:58:34.151Z,98218.27
2019-06-08T10:01:03.806Z,98216.31
2019-06-08T10:03:31.766Z,98221.66
2019-06-08T10:06:05.513Z,98219.70
2019-06-08T10:08:29.300Z,98212.02
2019-06-08T10:10:59.485Z,98219.03
2019-06-08T10:13:28.012Z,98213.70
2019-06-08T10:16:00.025Z,98217.92
2019-06-08T10:18:28.350Z,98221.31
2019-06-08T10:20:58.043Z,98221.66
2019-06-08T10:23:31.876Z,98223.13
2019-06-08T10:25:55.026Z,98231.28
2019-06-08T10:28:22.911Z,98228.14
2019-06-08T10:30:50.741Z,98236.27
2019-06-08T10:33:18.680Z,98233.77
2019-06-08T10:35:47.987Z,98231.95
2019-06-08T10:38:18.112Z,98227.66
2019-06-08T10:41:10.430Z,98225.15
2019-06-08T10:43:34.793Z,98225.15
2019-06-08T10:46:09.431Z,98218.34
2019-06-08T10:48:32.303Z,98222.67
2019-06-08T10:51:03.761Z,98216.91
2019-06-08T10:53:45.041Z,98223.09
2019-06-08T10:56:01.282Z,98218.66
2019-06-08T10:58:29.438Z,98214.69
2019-06-08T11:00:59.692Z,98218.91
2019-06-08T11:03:30.377Z,98212.98
2019-06-08T11:06:00.464Z,98220.13
2019-06-08T11:08:27.571Z,98214.83
2019-06-08T11:10:57.868Z,98216.08
2019-06-08T11:13:28.140Z,98206.31
2019-06-08T11:15:58.049Z,98211.52
2019-06-08T11:18:25.269Z,98211.75
2019-06-08T11:20:53.166Z,98216.84
2019-06-08T11:23:21.035Z,98211.64
2019-06-08T11:25:48.917Z,98217.65
2019-06-08T11:28:18.553Z,98206.84
2019-06-08T11:30:48.076Z,98206.20
2019-06-08T11:33:16.251Z,98195.77
2019-06-08T11:35:44.286Z,98191.55
2019-06-08T11:38:12.750Z,98192.25
2019-06-08T11:40:41.799Z,98190.86
2019-06-08T11:43:10.685Z,98198.81
2019-06-08T11:45:39.444Z,98192.74
2019-06-08T11:48:08.662Z,98184.61
2019-06-08T11:50:41.449Z,98190.41
2019-06-08T11:53:10.516Z,98191.38
2019-06-08T11:55:38.493Z,98188.59
2019-06-08T11:58:09.814Z,98189.01
2019-06-08T12:01:00.732Z,98195.39
2019-06-08T12:03:27.739Z,98192.18
2019-06-08T12:05:58.151Z,98186.70
2019-06-08T12:08:25.112Z,98187.96
2019-06-08T12:10:53.229Z,98149.77
2019-06-08T12:13:21.080Z,98186.25
2019-06-08T12:15:49.006Z,98188.83
2019-06-08T12:18:18.184Z,98183.45
2019-06-08T12:20:48.689Z,98188.10
2019-06-08T12:23:16.417Z,98187.89
2019-06-08T12:25:44.440Z,98190.83
2019-06-08T12:28:12.604Z,98181.50
2019-06-08T12:30:41.806Z,98179.23
2019-06-08T12:33:30.746Z,98179.41
2019-06-08T12:35:59.033Z,98166.78
2019-06-08T12:38:29.968Z,98167.90
2019-06-08T12:40:58.720Z,98158.61
2019-06-08T12:46:00.390Z,98157.18
2019-06-08T12:48:28.793Z,98166.50
2019-06-08T12:50:57.932Z,98167.86
2019-06-08T12:53:28.145Z,98151.98
2019-06-08T12:55:57.907Z,98156.76
2019-06-08T12:58:27.467Z,98153.69
2019-06-08T13:00:57.839Z,98164.53
2019-06-08T13:03:24.846Z,98160.52
2019-06-08T13:05:53.119Z,98175.98
2019-06-08T13:08:21.846Z,98168.12
2019-06-08T13:10:50.858Z,98171.67
2019-06-08T13:13:19.990Z,98182.65
2019-06-08T13:15:48.626Z,98169.67
2019-06-08T13:18:17.647Z,98172.78
2019-06-08T13:21:18.709Z,98162.49
2019-06-08T13:23:35.310Z,98166.47
2019-06-08T13:26:03.334Z,98161.89
2019-06-08T13:28:31.220Z,98167.20
2019-06-08T13:30:59.622Z,98163.30
2019-06-08T13:33:28.128Z,98161.91
2019-06-08T13:35:58.011Z,98161.22
2019-06-08T13:38:27.809Z,98156.77
2019-06-08T13:40:58.918Z,98157.37
2019-06-08T13:46:00.485Z,98156.92
2019-06-08T13:48:28.504Z,98153.88
2019-06-08T13:50:59.020Z,98155.06
2019-06-08T13:53:29.376Z,98152.20
2019-06-08T13:55:56.732Z,98151.30
2019-06-08T13:58:30.911Z,98153.70
2019-06-08T14:00:56.770Z,98152.80
2019-06-08T14:03:24.455Z,98156.34
2019-06-08T14:05:52.547Z,98160.09
2019-06-08T14:08:22.455Z,98151.04
2019-06-08T14:10:50.174Z,98149.75
2019-06-08T14:13:21.547Z,98155.05
2019-06-08T14:15:48.781Z,98144.55
2019-06-08T14:18:22.561Z,98145.64
2019-06-08T14:20:48.364Z,98141.88
2019-06-08T14:23:19.599Z,98146.30
2019-06-08T14:25:53.689Z,98143.66
2019-06-08T14:28:18.151Z,98140.36
2019-06-08T14:30:47.861Z,98140.91
2019-06-08T14:33:23.036Z,98139.45
2019-06-08T14:35:45.692Z,98137.27
2019-06-08T14:38:13.722Z,98132.73
2019-06-08T14:40:41.556Z,98132.86
2019-06-08T14:43:10.757Z,98120.98
2019-06-08T14:45:39.054Z,98132.86
2019-06-08T14:48:07.008Z,98130.95
2019-06-08T14:50:34.906Z,98130.33
2019-06-08T14:53:02.940Z,98133.92
2019-06-08T14:55:33.990Z,98130.33
2019-06-08T14:58:00.913Z,98140.06
2019-06-08T15:00:29.722Z,98134.92
2019-06-08T15:02:59.046Z,98138.46
2019-06-08T15:05:30.723Z,98129.84
2019-06-08T15:07:58.159Z,98117.16
2019-06-08T15:10:29.339Z,98119.91
2019-06-08T15:12:57.781Z,98114.64
2019-06-08T15:15:28.869Z,98111.70
2019-06-08T15:17:58.255Z,98107.59
2019-06-08T15:20:26.209Z,98099.56
2019-06-08T15:22:54.191Z,98107.70
2019-06-08T15:25:22.538Z,98101.48
2019-06-08T15:27:50.543Z,98099.86
2019-06-08T15:30:18.749Z,98091.50
2019-06-08T15:32:48.021Z,98092.58
2019-06-08T15:35:18.108Z,98085.98
2019-06-08T15:37:47.708Z,98093.30
2019-06-08T15:40:17.564Z,98089.31
2019-06-08T15:42:47.829Z,98088.03
2019-06-08T15:45:18.271Z,98090.58
2019-06-08T15:47:48.538Z,98092.53
2019-06-08T15:50:17.946Z,98085.52
2019-06-08T15:52:47.997Z,98091.87
2019-06-08T15:55:15.386Z,98088.24
2019-06-08T15:57:43.264Z,98087.89
2019-06-08T16:00:11.246Z,98086.00
2019-06-08T16:02:39.219Z,98083.50
2019-06-08T16:05:07.782Z,98085.09
2019-06-08T16:07:35.906Z,98082.14
2019-06-08T16:10:04.165Z,98078.52
2019-06-08T16:12:33.181Z,98082.03
2019-06-08T16:15:01.455Z,98078.52
2019-06-08T16:17:29.303Z,98074.09
2019-06-08T16:19:57.167Z,98075.45
2019-06-08T16:22:25.708Z,98077.16
2019-06-08T16:24:53.606Z,98071.92
2019-06-08T16:27:21.511Z,98065.13
2019-06-08T16:29:49.667Z,98069.21
2019-06-08T16:32:17.455Z,98070.01
2019-06-08T16:34:45.677Z,98068.30
2019-06-08T16:37:13.587Z,98070.33
2019-06-08T16:39:41.455Z,98081.41
2019-06-08T16:42:09.492Z,98082.34
2019-06-08T16:44:38.627Z,98081.41
2019-06-08T16:47:06.570Z,98082.00
2019-06-08T16:49:35.432Z,98078.34
2019-06-08T16:52:03.449Z,98083.78
2019-06-08T16:54:32.726Z,98078.94
2019-06-08T16:57:10.054Z,98076.42
2019-06-08T16:59:30.514Z,98079.14
2019-06-08T17:01:58.876Z,98084.94
2019-06-08T17:04:26.776Z,98090.23
2019-06-08T17:06:54.908Z,98087.52
2019-06-08T17:09:22.694Z,98090.45
2019-06-08T17:11:50.483Z,98089.67
2019-06-08T17:14:18.314Z,98088.52
2019-06-08T17:16:46.283Z,98092.25
2019-06-08T17:19:14.298Z,98084.23
2019-06-08T17:21:42.292Z,98088.52
2019-06-08T17:24:10.269Z,98085.81
2019-06-08T17:26:38.739Z,98083.89
2019-06-08T17:29:06.976Z,98080.37
2019-06-08T17:31:35.210Z,98092.05
2019-06-08T17:34:03.308Z,98089.33
2019-06-08T17:36:31.945Z,98093.41
2019-06-08T17:39:00.124Z,98082.73
2019-06-08T17:41:27.924Z,98088.52
2019-06-08T17:43:55.825Z,98080.16
2019-06-08T17:46:23.624Z,98086.81
2019-06-08T17:48:51.411Z,98079.56
2019-06-08T17:51:19.287Z,98074.38
2019-06-08T17:53:47.410Z,98070.50
2019-06-08T17:56:15.496Z,98076.16
2019-06-08T17:58:43.677Z,98065.41
2019-06-08T18:01:11.963Z,98067.33
2019-06-08T18:03:41.090Z,98070.16
2019-06-08T18:06:09.637Z,98074.44
2019-06-08T18:08:40.570Z,98067.64
2019-06-08T18:11:08.064Z,98067.57
2019-06-08T18:13:39.028Z,98074.93
2019-06-08T18:16:08.111Z,98074.93
2019-06-08T18:18:37.690Z,98079.36
2019-06-08T18:21:04.963Z,98076.50
2019-06-08T18:23:34.223Z,98081.94
2019-06-08T18:26:02.223Z,98079.56
2019-06-08T18:28:30.012Z,98077.52
2019-06-08T18:30:58.231Z,98078.87
2019-06-08T18:33:27.046Z,98079.46
2019-06-08T18:35:57.517Z,98075.94
2019-06-08T18:38:27.275Z,98082.73
2019-06-08T18:40:54.595Z,98091.45
2019-06-08T18:43:23.352Z,98090.69
2019-06-08T18:45:51.100Z,98084.23
2019-06-08T18:48:18.948Z,98085.81
2019-06-08T18:50:48.497Z,98023.37
2019-06-08T18:53:18.922Z,98090.89
2019-06-08T18:55:49.948Z,98093.05
2019-06-08T18:58:24.406Z,98093.62
2019-06-08T19:00:51.151Z,98090.69
2019-06-08T19:03:17.173Z,98096.33
2019-06-08T19:05:47.632Z,98092.81
2019-06-08T19:08:15.098Z,98105.30
2019-06-08T19:10:45.505Z,98099.85
2019-06-08T19:13:17.961Z,98106.30
2019-06-08T19:15:51.850Z,98105.37
2019-06-08T19:18:17.744Z,98109.58
2019-06-08T19:20:48.965Z,98109.02
2019-06-08T19:23:21.373Z,98111.39
2019-06-08T19:25:49.752Z,98105.95
2019-06-08T19:28:32.695Z,98108.09
2019-06-08T19:30:51.344Z,98119.98
2019-06-08T19:33:18.056Z,98116.35
2019-06-08T19:35:51.643Z,98117.16
2019-06-08T19:38:17.985Z,98120.22
2019-06-08T19:40:46.110Z,98121.23
2019-06-08T19:43:14.196Z,98119.88
2019-06-08T19:45:43.968Z,98124.38
2019-06-08T19:48:12.255Z,98128.23
2019-06-08T19:50:41.344Z,98128.45
2019-06-08T19:53:10.149Z,98131.06
2019-06-08T19:55:39.290Z,98132.98
2019-06-08T19:58:08.724Z,97765.48
2019-06-08T20:00:39.261Z,98129.60
2019-06-08T20:03:07.696Z,98130.41
2019-06-08T20:05:37.800Z,98136.86
2019-06-08T20:08:07.870Z,98139.33
2019-06-08T20:10:35.173Z,98138.77
2019-06-08T20:13:03.179Z,98143.86
2019-06-08T20:15:31.337Z,98142.50
2019-06-08T20:17:59.414Z,98140.00
2019-06-08T20:20:28.049Z,98146.58
2019-06-08T20:22:58.504Z,98140.94
2019-06-08T20:25:27.879Z,98147.73
2019-06-08T20:27:58.462Z,98143.66
2019-06-08T20:30:28.015Z,98145.23
2019-06-08T20:32:57.418Z,98139.58
2019-06-08T20:35:25.119Z,98141.84
2019-06-08T20:37:53.891Z,98140.48
2019-06-08T20:40:22.000Z,98142.75
2019-06-08T20:42:53.316Z,98145.70
2019-06-08T20:45:19.574Z,98146.27
2019-06-08T20:47:50.551Z,98144.45
2019-06-08T20:50:18.374Z,98148.19
2019-06-08T20:52:47.299Z,98153.97
2019-06-08T20:55:17.490Z,98151.25
2019-06-08T20:57:47.736Z,98151.05
2019-06-08T21:00:15.854Z,98148.32
2019-06-08T21:02:43.938Z,98145.39
2019-06-08T21:05:12.296Z,98148.32
2019-06-08T21:07:40.180Z,98149.02
2019-06-08T21:10:08.642Z,98146.51
2019-06-08T21:12:37.918Z,98147.79
2019-06-08T21:15:07.068Z,98154.14
2019-06-08T21:17:35.260Z,98150.53
2019-06-08T21:20:03.277Z,98151.20
2019-06-08T21:22:31.300Z,98149.36
2019-06-08T21:25:00.141Z,98159.50
2019-06-08T21:27:28.364Z,98161.20
2019-06-08T21:30:02.159Z,98166.30
2019-06-08T21:32:27.813Z,98165.63
2019-06-08T21:34:57.601Z,98162.66
2019-06-08T21:37:27.865Z,98162.91
2019-06-08T21:40:00.835Z,98165.97
2019-06-08T21:42:24.598Z,98163.92
2019-06-08T21:44:53.700Z,98167.30
2019-06-08T21:47:22.270Z,98161.28
2019-06-08T21:49:51.365Z,98171.14
2019-06-08T21:52:19.634Z,98169.57
2019-06-08T21:54:48.889Z,98172.29
2019-06-08T21:57:18.513Z,98168.42
2019-06-08T21:59:48.550Z,98175.81
2019-06-08T22:02:16.268Z,98171.28
2019-06-08T22:04:44.178Z,98175.70
2019-06-08T22:07:12.233Z,98179.22
2019-06-08T22:09:40.431Z,98177.41
2019-06-08T22:12:08.495Z,98176.95
2019-06-08T22:14:37.863Z,98170.61
2019-06-08T22:17:07.858Z,98171.06
2019-06-08T22:19:37.895Z,98178.28
2019-06-08T22:22:08.169Z,98171.48
2019-06-08T22:24:35.489Z,98172.78
2019-06-08T22:27:03.710Z,98169.14
2019-06-08T22:29:31.937Z,98174.03
2019-06-08T22:32:00.240Z,98175.83
2019-06-08T22:34:28.243Z,98177.52
2019-06-08T22:36:58.623Z,98178.80
2019-06-08T22:39:27.983Z,98183.11
2019-06-08T22:41:58.075Z,98178.99
2019-06-08T22:44:28.249Z,98181.83
2019-06-08T22:46:58.434Z,98179.41
2019-06-08T22:49:27.840Z,98179.40
2019-06-08T22:51:57.731Z,98177.67
2019-06-08T22:54:24.680Z,98184.92
2019-06-08T22:56:53.825Z,98183.12
2019-06-08T22:59:22.394Z,98182.27
2019-06-08T23:01:50.283Z,98181.35
2019-06-08T23:04:18.396Z,98183.08
2019-06-08T23:06:47.634Z,98181.80
2019-06-08T23:09:17.938Z,98184.69
2019-06-08T23:11:47.113Z,98181.36
2019-06-08T23:14:15.217Z,98185.52
2019-06-08T23:16:43.292Z,98193.95
2019-06-08T23:19:11.223Z,98188.97
2019-06-08T23:21:39.242Z,98190.59
2019-06-08T23:24:08.504Z,98186.94
2019-06-08T23:26:37.311Z,98196.15
2019-06-08T23:29:07.813Z,98191.16
2019-06-08T23:31:35.358Z,98193.23
2019-06-08T23:34:06.572Z,98192.34
2019-06-08T23:36:48.360Z,98191.14
2019-06-08T23:39:03.792Z,98195.91
2019-06-08T23:41:32.971Z,98195.59
2019-06-08T23:44:01.493Z,98191.88
2019-06-08T23:46:29.579Z,98197.02
2019-06-08T23:49:00.623Z,98192.89
2019-06-08T23:51:27.663Z,98193.76
2019-06-08T23:53:58.266Z,98196.85
2019-06-08T23:56:27.775Z,98195.41
2019-06-08T23:58:55.626Z,98200.08
